createdAt,value
2022-10-05T00:00:02.682Z,7.30
2022-10-05T00:01:02.602Z,7.30
2022-10-05T00:02:02.585Z,7.29
2022-10-05T00:03:02.433Z,7.23
2022-10-05T00:04:02.373Z,7.23
2022-10-05T00:05:02.297Z,7.24
2022-10-05T00:06:02.187Z,7.29
2022-10-05T00:07:02.104Z,7.24
2022-10-05T00:08:02.031Z,7.23
2022-10-05T00:09:01.946Z,7.37
2022-10-05T00:10:01.858Z,7.26
2022-10-05T00:11:01.785Z,7.29
2022-10-05T00:12:01.700Z,7.29
2022-10-05T00:13:01.614Z,7.20
2022-10-05T00:14:01.536Z,7.11
2022-10-05T00:15:01.457Z,7.16
2022-10-05T00:16:01.438Z,7.19
2022-10-05T00:17:01.426Z,7.20
2022-10-05T00:18:01.207Z,7.30
2022-10-05T00:19:01.126Z,7.31
2022-10-05T00:20:01.040Z,7.38
2022-10-05T00:21:00.962Z,7.47
2022-10-05T00:22:00.880Z,7.53
2022-10-05T00:23:00.796Z,7.49
2022-10-05T00:24:00.722Z,7.52
2022-10-05T00:25:00.635Z,7.55
2022-10-05T00:26:00.551Z,7.55
2022-10-05T00:27:00.467Z,7.42
2022-10-05T00:28:00.451Z,7.39
2022-10-05T00:29:00.301Z,7.37
2022-10-05T00:30:00.222Z,7.29
2022-10-05T00:31:00.143Z,7.23
2022-10-05T00:32:00.163Z,7.13
2022-10-05T00:33:00.184Z,7.16
2022-10-05T00:33:59.898Z,7.16
2022-10-05T00:34:59.813Z,7.13
2022-10-05T00:35:59.739Z,7.17
2022-10-05T00:36:59.647Z,7.27
2022-10-05T00:37:59.568Z,7.27
2022-10-05T00:38:59.486Z,7.39
2022-10-05T00:39:59.405Z,7.56
2022-10-05T00:40:59.323Z,7.59
2022-10-05T00:41:59.241Z,7.62
2022-10-05T00:42:59.161Z,7.68
2022-10-05T00:43:59.075Z,7.82
2022-10-05T00:44:59.024Z,7.85
2022-10-05T00:45:59.001Z,7.93
2022-10-05T00:46:58.828Z,7.94
2022-10-05T00:47:58.752Z,8.04
2022-10-05T00:48:58.673Z,8.11
2022-10-05T00:49:58.583Z,8.15
2022-10-05T00:50:58.502Z,8.19
2022-10-05T00:51:58.424Z,8.18
2022-10-05T00:52:58.340Z,8.19
2022-10-05T00:53:58.254Z,8.25
2022-10-05T00:54:58.177Z,8.25
2022-10-05T00:55:58.089Z,8.21
2022-10-05T00:56:58.011Z,8.18
2022-10-05T00:57:57.933Z,8.21
2022-10-05T00:58:57.847Z,8.29
2022-10-05T00:59:57.762Z,8.24
2022-10-05T01:00:57.742Z,8.30
2022-10-05T01:01:57.649Z,8.22
2022-10-05T01:02:57.519Z,8.32
2022-10-05T01:03:57.437Z,8.27
2022-10-05T01:04:57.357Z,8.25
2022-10-05T01:05:57.276Z,8.25
2022-10-05T01:06:57.191Z,8.32
2022-10-05T01:07:57.109Z,8.29
2022-10-05T01:08:57.027Z,8.21
2022-10-05T01:09:56.948Z,8.22
2022-10-05T01:10:56.873Z,8.24
2022-10-05T01:11:56.783Z,8.21
2022-10-05T01:12:56.703Z,8.21
2022-10-05T01:13:56.621Z,8.18
2022-10-05T01:14:56.537Z,8.21
2022-10-05T01:15:56.453Z,8.24
2022-10-05T01:16:56.436Z,8.09
2022-10-05T01:17:56.297Z,8.11
2022-10-05T01:18:56.214Z,8.11
2022-10-05T01:19:56.130Z,8.17
2022-10-05T01:20:56.050Z,8.18
2022-10-05T01:21:55.965Z,8.18
2022-10-05T01:22:55.895Z,8.11
2022-10-05T01:23:55.807Z,8.19
2022-10-05T01:24:55.724Z,8.21
2022-10-05T01:25:55.642Z,8.19
2022-10-05T01:26:55.563Z,8.19
2022-10-05T01:27:55.546Z,8.24
2022-10-05T01:28:55.396Z,8.15
2022-10-05T01:29:55.316Z,8.25
2022-10-05T01:30:55.231Z,8.19
2022-10-05T01:31:55.189Z,8.24
2022-10-05T01:32:55.066Z,8.27
2022-10-05T01:33:54.988Z,8.33
2022-10-05T01:34:54.907Z,8.25
2022-10-05T01:35:54.820Z,8.25
2022-10-05T01:36:54.741Z,8.27
2022-10-05T01:37:54.662Z,8.27
2022-10-05T01:38:54.579Z,8.30
2022-10-05T01:39:54.495Z,8.27
2022-10-05T01:40:54.416Z,8.47
2022-10-05T01:41:54.330Z,8.50
2022-10-05T01:42:54.250Z,8.52
2022-10-05T01:43:54.167Z,8.50
2022-10-05T01:44:54.092Z,8.40
2022-10-05T01:45:54.085Z,8.36
2022-10-05T01:46:53.926Z,8.30
2022-10-05T01:47:53.842Z,8.25
2022-10-05T01:48:53.762Z,8.15
2022-10-05T01:49:53.681Z,8.19
2022-10-05T01:50:53.596Z,8.24
2022-10-05T01:51:53.512Z,8.19
2022-10-05T01:52:53.496Z,8.27
2022-10-05T01:53:53.351Z,8.25
2022-10-05T01:54:53.270Z,8.22
2022-10-05T01:55:53.188Z,8.24
2022-10-05T01:56:53.109Z,8.19
2022-10-05T01:57:53.026Z,8.25
2022-10-05T01:58:52.944Z,8.25
2022-10-05T01:59:52.860Z,8.24
2022-10-05T02:00:52.815Z,8.15
2022-10-05T02:01:52.791Z,8.18
2022-10-05T02:02:52.625Z,8.06
2022-10-05T02:03:52.533Z,7.94
2022-10-05T02:05:07.736Z,7.90
2022-10-05T02:05:52.370Z,7.90
2022-10-05T02:06:52.296Z,7.91
2022-10-05T02:07:52.211Z,7.99
2022-10-05T02:08:52.137Z,8.01
2022-10-05T02:09:52.045Z,8.09
2022-10-05T02:10:51.965Z,8.07
2022-10-05T02:11:51.881Z,8.15
2022-10-05T02:12:51.800Z,8.19
2022-10-05T02:13:51.719Z,8.17
2022-10-05T02:14:51.639Z,8.17
2022-10-05T02:15:51.603Z,8.11
2022-10-05T02:16:51.477Z,8.17
2022-10-05T02:17:51.391Z,8.09
2022-10-05T02:18:51.310Z,8.11
2022-10-05T02:19:51.228Z,8.19
2022-10-05T02:20:51.154Z,8.21
2022-10-05T02:21:51.065Z,8.21
2022-10-05T02:22:50.984Z,8.27
2022-10-05T02:23:50.898Z,8.19
2022-10-05T02:24:50.873Z,8.17
2022-10-05T02:25:50.741Z,8.22
2022-10-05T02:26:50.658Z,8.21
2022-10-05T02:27:50.578Z,8.07
2022-10-05T02:28:50.493Z,7.99
2022-10-05T02:29:50.411Z,7.83
2022-10-05T02:30:50.339Z,7.68
2022-10-05T02:31:50.334Z,7.41
2022-10-05T02:32:50.175Z,7.27
2022-10-05T02:33:50.084Z,7.24
2022-10-05T02:34:50.003Z,7.20
2022-10-05T02:35:49.919Z,7.19
2022-10-05T02:36:49.854Z,7.23
2022-10-05T02:37:49.757Z,7.19
2022-10-05T02:38:49.678Z,7.20
2022-10-05T02:39:49.594Z,7.31
2022-10-05T02:40:49.568Z,7.26
2022-10-05T02:41:49.433Z,7.26
2022-10-05T02:42:49.350Z,7.27
2022-10-05T02:43:49.267Z,7.26
2022-10-05T02:44:49.184Z,7.26
2022-10-05T02:45:49.154Z,7.38
2022-10-05T02:46:53.071Z,7.31
2022-10-05T02:47:48.939Z,7.13
2022-10-05T02:48:48.862Z,7.05
2022-10-05T02:49:48.779Z,6.99
2022-10-05T02:50:48.695Z,7.01
2022-10-05T02:51:48.613Z,6.99
2022-10-05T02:52:48.527Z,7.08
2022-10-05T02:53:48.445Z,7.02
2022-10-05T02:54:48.393Z,7.02
2022-10-05T02:55:48.285Z,7.06
2022-10-05T02:56:48.744Z,7.17
2022-10-05T02:57:48.118Z,7.16
2022-10-05T02:58:48.041Z,7.20
2022-10-05T02:59:47.953Z,7.24
2022-10-05T03:00:47.932Z,7.26
2022-10-05T03:01:47.831Z,7.37
2022-10-05T03:02:47.716Z,7.38
2022-10-05T03:03:47.627Z,7.38
2022-10-05T03:04:47.547Z,7.47
2022-10-05T03:05:47.461Z,7.62
2022-10-05T03:06:47.750Z,7.60
2022-10-05T03:07:47.300Z,7.64
2022-10-05T03:08:47.218Z,7.64
2022-10-05T03:09:47.134Z,7.67
2022-10-05T03:10:47.055Z,7.70
2022-10-05T03:11:46.971Z,7.79
2022-10-05T03:12:46.894Z,7.68
2022-10-05T03:13:46.810Z,7.75
2022-10-05T03:14:46.728Z,7.81
2022-10-05T03:15:46.687Z,7.82
2022-10-05T03:16:46.836Z,7.82
2022-10-05T03:17:46.483Z,7.90
2022-10-05T03:18:46.401Z,7.85
2022-10-05T03:19:46.315Z,7.94
2022-10-05T03:20:46.236Z,7.90
2022-10-05T03:21:46.157Z,7.94
2022-10-05T03:22:46.071Z,7.91
2022-10-05T03:23:45.988Z,7.99
2022-10-05T03:24:45.912Z,7.88
2022-10-05T03:25:45.827Z,7.88
2022-10-05T03:26:46.030Z,7.88
2022-10-05T03:27:45.662Z,7.85
2022-10-05T03:28:45.580Z,7.85
2022-10-05T03:29:45.493Z,7.83
2022-10-05T03:30:45.420Z,7.86
2022-10-05T03:31:45.335Z,7.82
2022-10-05T03:32:45.253Z,7.79
2022-10-05T03:33:45.167Z,7.75
2022-10-05T03:34:45.089Z,7.78
2022-10-05T03:35:45.011Z,7.75
2022-10-05T03:36:45.107Z,7.81
2022-10-05T03:37:44.839Z,7.78
2022-10-05T03:38:44.775Z,7.73
2022-10-05T03:39:44.677Z,7.73
2022-10-05T03:40:44.597Z,7.76
2022-10-05T03:41:44.516Z,7.82
2022-10-05T03:42:44.446Z,7.76
2022-10-05T03:43:44.349Z,7.73
2022-10-05T03:44:44.273Z,7.76
2022-10-05T03:45:44.183Z,7.67
2022-10-05T03:46:44.481Z,7.67
2022-10-05T03:47:44.023Z,7.70
2022-10-05T03:48:43.942Z,7.67
2022-10-05T03:49:43.856Z,7.70
2022-10-05T03:50:43.779Z,7.63
2022-10-05T03:51:43.692Z,7.68
2022-10-05T03:52:43.614Z,7.68
2022-10-05T03:53:43.531Z,7.67
2022-10-05T03:54:43.453Z,7.73
2022-10-05T03:55:43.371Z,7.75
2022-10-05T03:56:43.400Z,7.75
2022-10-05T03:57:43.202Z,7.83
2022-10-05T03:58:43.124Z,7.76
2022-10-05T03:59:43.042Z,7.83
2022-10-05T04:00:42.961Z,7.76
2022-10-05T04:01:42.984Z,7.78
2022-10-05T04:02:42.831Z,7.62
2022-10-05T04:03:42.713Z,7.68
2022-10-05T04:04:42.630Z,7.52
2022-10-05T04:05:42.552Z,7.47
2022-10-05T04:06:42.466Z,7.44
2022-10-05T04:07:42.385Z,7.48
2022-10-05T04:08:47.473Z,7.48
2022-10-05T04:09:42.224Z,7.47
2022-10-05T04:10:42.138Z,7.47
2022-10-05T04:11:42.056Z,7.59
2022-10-05T04:12:41.975Z,7.62
2022-10-05T04:13:41.891Z,7.55
2022-10-05T04:14:41.810Z,7.60
2022-10-05T04:15:41.755Z,7.62
2022-10-05T04:16:41.653Z,7.60
2022-10-05T04:17:41.570Z,7.57
2022-10-05T04:18:41.481Z,7.47
2022-10-05T04:19:41.418Z,7.41
2022-10-05T04:20:41.322Z,7.39
2022-10-05T04:21:41.237Z,7.34
2022-10-05T04:22:41.156Z,7.31
2022-10-05T04:23:41.073Z,7.30
2022-10-05T04:24:40.994Z,7.37
2022-10-05T04:25:40.914Z,7.31
2022-10-05T04:26:40.832Z,7.30
2022-10-05T04:27:40.749Z,7.24
2022-10-05T04:28:40.702Z,7.31
2022-10-05T04:29:40.583Z,7.29
2022-10-05T04:30:40.507Z,7.21
2022-10-05T04:31:40.466Z,7.31
2022-10-05T04:32:40.339Z,7.35
2022-10-05T04:33:40.255Z,7.31
2022-10-05T04:34:40.175Z,7.37
2022-10-05T04:35:40.088Z,7.37
2022-10-05T04:36:40.008Z,7.34
2022-10-05T04:37:43.223Z,7.41
2022-10-05T04:38:39.847Z,7.34
2022-10-05T04:39:39.764Z,7.38
2022-10-05T04:40:39.682Z,7.52
2022-10-05T04:41:39.597Z,7.45
2022-10-05T04:42:39.517Z,7.45
2022-10-05T04:43:39.433Z,7.44
2022-10-05T04:44:39.353Z,7.45
2022-10-05T04:45:39.276Z,7.42
2022-10-05T04:46:39.274Z,7.53
2022-10-05T04:47:39.108Z,7.57
2022-10-05T04:48:39.025Z,7.60
2022-10-05T04:49:38.942Z,7.57
2022-10-05T04:50:38.859Z,7.57
2022-10-05T04:51:38.784Z,7.62
2022-10-05T04:52:38.697Z,7.56
2022-10-05T04:53:38.616Z,7.55
2022-10-05T04:54:38.534Z,7.45
2022-10-05T04:55:38.448Z,7.41
2022-10-05T04:56:38.368Z,7.49
2022-10-05T04:57:38.288Z,7.49
2022-10-05T04:58:42.272Z,7.52
2022-10-05T04:59:38.118Z,7.57
2022-10-05T05:00:38.065Z,7.52
2022-10-05T05:01:37.960Z,7.48
2022-10-05T05:02:37.881Z,7.37
2022-10-05T05:03:37.818Z,7.34
2022-10-05T05:04:37.714Z,7.39
2022-10-05T05:05:53.034Z,7.34
2022-10-05T05:06:37.551Z,7.37
2022-10-05T05:07:37.461Z,7.41
2022-10-05T05:08:37.397Z,7.44
2022-10-05T05:09:37.307Z,7.44
2022-10-05T05:10:37.219Z,7.47
2022-10-05T05:11:37.137Z,7.47
2022-10-05T05:12:37.056Z,7.42
2022-10-05T05:13:36.993Z,7.45
2022-10-05T05:14:36.895Z,7.52
2022-10-05T05:15:36.814Z,7.53
2022-10-05T05:16:36.764Z,7.56
2022-10-05T05:17:36.664Z,7.56
2022-10-05T05:18:36.642Z,7.55
2022-10-05T05:19:36.482Z,7.47
2022-10-05T05:20:36.408Z,7.44
2022-10-05T05:21:36.324Z,7.26
2022-10-05T05:22:36.236Z,7.19
2022-10-05T05:23:36.153Z,7.20
2022-10-05T05:24:36.071Z,7.12
2022-10-05T05:25:35.994Z,7.12
2022-10-05T05:26:39.018Z,7.19
2022-10-05T05:27:35.828Z,7.19
2022-10-05T05:28:35.876Z,7.20
2022-10-05T05:29:35.665Z,7.19
2022-10-05T05:30:35.579Z,7.16
2022-10-05T05:31:35.579Z,7.23
2022-10-05T05:32:35.413Z,7.08
2022-10-05T05:33:35.332Z,7.08
2022-10-05T05:34:35.250Z,7.05
2022-10-05T05:35:35.168Z,7.06
2022-10-05T05:36:35.087Z,6.96
2022-10-05T05:37:35.003Z,6.99
2022-10-05T05:38:34.929Z,6.96
2022-10-05T05:39:34.840Z,7.03
2022-10-05T05:40:34.759Z,6.96
2022-10-05T05:41:34.681Z,6.93
2022-10-05T05:42:34.603Z,6.88
2022-10-05T05:43:34.509Z,6.91
2022-10-05T05:44:38.540Z,6.75
2022-10-05T05:45:34.349Z,6.78
2022-10-05T05:47:01.640Z,6.81
2022-10-05T05:47:34.250Z,6.86
2022-10-05T05:48:34.105Z,6.78
2022-10-05T05:49:34.021Z,6.90
2022-10-05T05:50:33.936Z,6.87
2022-10-05T05:51:33.854Z,6.93
2022-10-05T05:52:33.773Z,6.93
2022-10-05T05:53:33.692Z,6.94
2022-10-05T05:54:33.610Z,6.80
2022-10-05T05:55:33.526Z,6.83
2022-10-05T05:56:33.444Z,6.72
2022-10-05T05:57:33.364Z,6.83
2022-10-05T05:58:33.277Z,6.81
2022-10-05T05:59:33.196Z,6.78
2022-10-05T06:00:33.118Z,6.81
2022-10-05T06:01:34.037Z,6.87
2022-10-05T06:02:33.115Z,6.84
2022-10-05T06:03:32.908Z,6.87
2022-10-05T06:04:32.783Z,6.87
2022-10-05T06:05:32.701Z,6.93
2022-10-05T06:06:32.625Z,6.87
2022-10-05T06:07:32.597Z,6.86
2022-10-05T06:08:32.473Z,6.81
2022-10-05T06:09:32.374Z,6.86
2022-10-05T06:10:32.291Z,6.78
2022-10-05T06:11:32.211Z,6.83
2022-10-05T06:12:32.131Z,6.76
2022-10-05T06:13:32.051Z,6.87
2022-10-05T06:14:31.964Z,6.78
2022-10-05T06:15:31.889Z,6.83
2022-10-05T06:16:31.900Z,6.81
2022-10-05T06:17:31.720Z,6.81
2022-10-05T06:18:31.655Z,6.81
2022-10-05T06:19:31.553Z,6.84
2022-10-05T06:20:31.474Z,6.78
2022-10-05T06:21:31.404Z,6.84
2022-10-05T06:22:31.303Z,6.94
2022-10-05T06:23:31.222Z,6.88
2022-10-05T06:24:31.144Z,6.90
2022-10-05T06:25:31.061Z,6.90
2022-10-05T06:26:30.982Z,6.96
2022-10-05T06:27:30.897Z,6.96
2022-10-05T06:28:30.873Z,7.12
2022-10-05T06:29:30.737Z,7.13
2022-10-05T06:30:30.648Z,7.20
2022-10-05T06:31:30.597Z,7.16
2022-10-05T06:32:30.481Z,7.23
2022-10-05T06:33:30.398Z,7.34
2022-10-05T06:34:30.320Z,7.27
2022-10-05T06:35:30.236Z,7.37
2022-10-05T06:36:30.149Z,7.39
2022-10-05T06:37:30.072Z,7.47
2022-10-05T06:38:29.988Z,7.41
2022-10-05T06:39:29.905Z,7.59
2022-10-05T06:40:29.873Z,7.60
2022-10-05T06:41:29.740Z,7.60
2022-10-05T06:42:29.658Z,7.55
2022-10-05T06:43:29.579Z,7.68
2022-10-05T06:44:29.494Z,7.70
2022-10-05T06:45:29.462Z,7.70
2022-10-05T06:46:29.330Z,7.70
2022-10-05T06:47:29.249Z,7.75
2022-10-05T06:48:29.164Z,7.78
2022-10-05T06:49:29.086Z,7.94
2022-10-05T06:50:29.000Z,7.86
2022-10-05T06:51:29.030Z,7.93
2022-10-05T06:52:28.836Z,7.94
2022-10-05T06:53:28.756Z,7.93
2022-10-05T06:54:28.674Z,8.00
2022-10-05T06:55:28.595Z,8.07
2022-10-05T06:56:28.507Z,8.12
2022-10-05T06:57:28.428Z,8.19
2022-10-05T06:58:28.347Z,8.25
2022-10-05T06:59:28.266Z,8.30
2022-10-05T07:00:28.179Z,8.32
2022-10-05T07:01:28.161Z,8.33
2022-10-05T07:02:28.073Z,8.39
2022-10-05T07:03:27.936Z,8.44
2022-10-05T07:04:27.850Z,8.52
2022-10-05T07:05:27.772Z,8.69
2022-10-05T07:06:27.691Z,8.72
2022-10-05T07:07:27.611Z,8.80
2022-10-05T07:08:27.529Z,8.95
2022-10-05T07:09:27.452Z,9.03
2022-10-05T07:10:27.362Z,9.29
2022-10-05T07:11:27.281Z,9.32
2022-10-05T07:12:27.208Z,9.56
2022-10-05T07:13:27.116Z,9.70
2022-10-05T07:14:27.034Z,9.89
2022-10-05T07:15:26.957Z,9.97
2022-10-05T07:16:26.932Z,10.04
2022-10-05T07:17:26.798Z,10.23
2022-10-05T07:18:26.710Z,10.40
2022-10-05T07:19:26.635Z,10.58
2022-10-05T07:20:26.547Z,10.66
2022-10-05T07:21:26.472Z,10.87
2022-10-05T07:22:28.306Z,10.95
2022-10-05T07:23:26.306Z,11.03
2022-10-05T07:24:26.228Z,11.14
2022-10-05T07:25:26.145Z,11.29
2022-10-05T07:26:26.058Z,11.36
2022-10-05T07:27:25.977Z,11.46
2022-10-05T07:28:26.144Z,11.59
2022-10-05T07:29:25.823Z,11.74
2022-10-05T07:30:25.739Z,11.90
2022-10-05T07:31:25.680Z,11.95
2022-10-05T07:32:25.573Z,12.09
2022-10-05T07:33:25.496Z,12.11
2022-10-05T07:34:25.416Z,12.28
2022-10-05T07:35:25.333Z,12.41
2022-10-05T07:36:25.249Z,12.51
2022-10-05T07:37:25.170Z,12.59
2022-10-05T07:38:25.093Z,12.73
2022-10-05T07:39:36.722Z,12.77
2022-10-05T07:40:24.929Z,12.84
2022-10-05T07:41:24.852Z,13.02
2022-10-05T07:42:24.771Z,13.06
2022-10-05T07:43:24.696Z,13.14
2022-10-05T07:44:24.632Z,13.21
2022-10-05T07:45:24.565Z,13.33
2022-10-05T07:46:24.516Z,13.32
2022-10-05T07:47:24.370Z,13.52
2022-10-05T07:48:24.289Z,13.62
2022-10-05T07:49:24.214Z,13.59
2022-10-05T07:50:24.128Z,13.70
2022-10-05T07:51:24.053Z,13.77
2022-10-05T07:52:23.974Z,13.86
2022-10-05T07:53:23.896Z,13.98
2022-10-05T07:54:23.812Z,14.23
2022-10-05T07:55:23.735Z,14.29
2022-10-05T07:56:23.655Z,14.39
2022-10-05T07:57:23.572Z,14.36
2022-10-05T07:58:23.495Z,14.46
2022-10-05T07:59:23.420Z,14.64
2022-10-05T08:00:23.379Z,14.84
2022-10-05T08:01:23.291Z,14.83
2022-10-05T08:02:23.306Z,14.88
2022-10-05T08:03:23.126Z,15.03
2022-10-05T08:04:23.024Z,15.18
2022-10-05T08:05:22.945Z,15.24
2022-10-05T08:06:22.867Z,15.31
2022-10-05T08:08:22.707Z,15.46
2022-10-05T08:09:22.627Z,15.59
2022-10-05T08:10:22.547Z,15.48
2022-10-05T08:11:22.467Z,15.63
2022-10-05T08:12:22.396Z,15.48
2022-10-05T08:13:22.313Z,15.34
2022-10-05T08:14:22.233Z,15.26
2022-10-05T08:15:22.154Z,15.33
2022-10-05T08:16:22.162Z,15.26
2022-10-05T08:17:25.489Z,15.26
2022-10-05T08:18:21.921Z,15.23
2022-10-05T08:19:21.841Z,15.26
2022-10-05T08:20:21.758Z,15.23
2022-10-05T08:21:21.684Z,15.35
2022-10-05T08:22:21.604Z,15.41
2022-10-05T08:23:21.528Z,15.39
2022-10-05T08:24:21.448Z,15.57
2022-10-05T08:25:21.475Z,15.46
2022-10-05T08:26:21.289Z,15.59
2022-10-05T08:27:21.212Z,15.59
2022-10-05T08:28:21.164Z,15.59
2022-10-05T08:29:21.058Z,15.66
2022-10-05T08:30:21.021Z,15.68
2022-10-05T08:31:20.966Z,15.75
2022-10-05T08:32:20.836Z,15.66
2022-10-05T08:33:20.744Z,15.79
2022-10-05T08:34:20.672Z,15.81
2022-10-05T08:35:20.590Z,15.97
2022-10-05T08:36:20.512Z,15.92
2022-10-05T08:37:20.432Z,16.00
2022-10-05T08:38:20.355Z,16.03
2022-10-05T08:39:20.276Z,16.16
2022-10-05T08:40:20.209Z,16.25
2022-10-05T08:41:20.124Z,16.37
2022-10-05T08:42:20.040Z,16.40
2022-10-05T08:43:19.964Z,16.47
2022-10-05T08:44:19.884Z,16.63
2022-10-05T08:45:19.810Z,16.67
2022-10-05T08:46:19.815Z,16.74
2022-10-05T08:47:19.657Z,16.85
2022-10-05T08:48:19.610Z,16.98
2022-10-05T08:49:19.498Z,16.89
2022-10-05T08:50:19.504Z,16.95
2022-10-05T08:51:19.342Z,16.96
2022-10-05T08:52:19.264Z,17.00
2022-10-05T08:53:19.189Z,17.00
2022-10-05T08:54:19.111Z,17.05
2022-10-05T08:55:19.033Z,17.14
2022-10-05T08:56:20.854Z,17.11
2022-10-05T08:57:18.882Z,16.98
2022-10-05T08:58:18.805Z,17.05
2022-10-05T08:59:18.724Z,16.98
2022-10-05T09:00:18.649Z,17.05
2022-10-05T09:01:18.634Z,16.99
2022-10-05T09:02:18.564Z,17.02
2022-10-05T09:03:18.414Z,17.11
2022-10-05T09:04:18.340Z,17.23
2022-10-05T09:05:18.260Z,17.21
2022-10-05T09:06:18.181Z,17.36
2022-10-05T09:07:18.111Z,17.32
2022-10-05T09:08:18.026Z,17.39
2022-10-05T09:09:17.957Z,17.32
2022-10-05T09:10:17.878Z,17.35
2022-10-05T09:11:17.801Z,17.50
2022-10-05T09:12:17.720Z,17.39
2022-10-05T09:13:17.645Z,17.40
2022-10-05T09:14:17.568Z,17.51
2022-10-05T09:15:26.227Z,17.43
2022-10-05T09:16:17.484Z,17.47
2022-10-05T09:17:17.339Z,17.53
2022-10-05T09:18:17.265Z,17.44
2022-10-05T09:19:17.185Z,17.50
2022-10-05T09:20:17.133Z,17.53
2022-10-05T09:21:17.050Z,17.54
2022-10-05T09:22:16.953Z,17.44
2022-10-05T09:23:16.876Z,17.60
2022-10-05T09:24:16.808Z,17.66
2022-10-05T09:25:16.721Z,17.63
2022-10-05T09:26:16.658Z,17.63
2022-10-05T09:27:16.567Z,17.71
2022-10-05T09:28:16.511Z,17.94
2022-10-05T09:29:16.417Z,18.00
2022-10-05T09:30:16.344Z,18.13
2022-10-05T09:31:16.349Z,18.06
2022-10-05T09:32:16.676Z,18.21
2022-10-05T09:33:16.112Z,18.18
2022-10-05T09:34:16.043Z,18.24
2022-10-05T09:35:15.954Z,18.11
2022-10-05T09:36:15.892Z,18.02
2022-10-05T09:37:15.802Z,17.94
2022-10-05T09:38:15.731Z,17.94
2022-10-05T09:39:15.655Z,17.84
2022-10-05T09:40:15.587Z,17.76
2022-10-05T09:41:15.507Z,17.71
2022-10-05T09:42:15.427Z,17.76
2022-10-05T09:43:15.350Z,17.87
2022-10-05T09:44:15.278Z,17.94
2022-10-05T09:45:20.359Z,17.94
2022-10-05T09:46:15.170Z,18.14
2022-10-05T09:47:15.041Z,18.04
2022-10-05T09:48:14.974Z,18.14
2022-10-05T09:49:14.894Z,18.19
2022-10-05T09:50:14.823Z,18.21
2022-10-05T09:51:14.745Z,18.24
2022-10-05T09:52:18.777Z,18.16
2022-10-05T09:53:14.596Z,18.35
2022-10-05T09:54:14.521Z,18.27
2022-10-05T09:55:14.442Z,18.19
2022-10-05T09:56:14.366Z,18.21
2022-10-05T09:57:14.329Z,18.27
2022-10-05T09:58:14.214Z,18.27
2022-10-05T09:59:14.132Z,18.32
2022-10-05T10:00:14.058Z,18.37
2022-10-05T10:01:32.708Z,18.46
2022-10-05T10:02:14.084Z,18.44
2022-10-05T10:03:13.925Z,18.39
2022-10-05T10:04:13.769Z,18.27
2022-10-05T10:05:13.682Z,18.27
2022-10-05T10:06:13.594Z,18.06
2022-10-05T10:07:13.520Z,18.09
2022-10-05T10:08:13.462Z,18.19
2022-10-05T10:09:13.377Z,18.18
2022-10-05T10:10:13.304Z,18.18
2022-10-05T10:11:13.216Z,18.24
2022-10-05T10:12:13.142Z,18.28
2022-10-05T10:13:13.063Z,18.28
2022-10-05T10:14:12.991Z,18.27
2022-10-05T10:15:12.912Z,18.28
2022-10-05T10:16:12.913Z,18.27
2022-10-05T10:17:12.771Z,18.43
2022-10-05T10:18:12.698Z,18.39
2022-10-05T10:19:12.626Z,18.46
2022-10-05T10:20:12.533Z,18.44
2022-10-05T10:21:12.456Z,18.40
2022-10-05T10:22:12.386Z,18.40
2022-10-05T10:23:12.301Z,18.44
2022-10-05T10:24:12.244Z,18.46
2022-10-05T10:25:12.154Z,18.58
2022-10-05T10:26:12.074Z,18.68
2022-10-05T10:27:12.001Z,18.69
2022-10-05T10:28:11.936Z,18.68
2022-10-05T10:29:11.849Z,18.55
2022-10-05T10:30:11.773Z,18.58
2022-10-05T10:31:11.745Z,18.67
2022-10-05T10:32:11.623Z,18.76
2022-10-05T10:33:11.543Z,18.79
2022-10-05T10:34:11.472Z,18.80
2022-10-05T10:35:11.393Z,18.68
2022-10-05T10:36:11.320Z,18.69
2022-10-05T10:37:11.241Z,18.65
2022-10-05T10:38:11.169Z,18.74
2022-10-05T10:39:11.091Z,18.69
2022-10-05T10:40:11.065Z,18.82
2022-10-05T10:41:10.944Z,18.68
2022-10-05T10:42:10.872Z,18.69
2022-10-05T10:43:10.803Z,18.67
2022-10-05T10:44:10.716Z,18.69
2022-10-05T10:45:10.638Z,18.67
2022-10-05T10:46:10.577Z,18.68
2022-10-05T10:47:10.485Z,18.69
2022-10-05T10:48:10.411Z,18.74
2022-10-05T10:49:10.341Z,18.65
2022-10-05T10:50:10.262Z,18.65
2022-10-05T10:51:10.188Z,18.68
2022-10-05T10:52:10.107Z,18.68
2022-10-05T10:53:10.033Z,18.79
2022-10-05T10:54:09.966Z,18.90
2022-10-05T10:55:09.881Z,18.98
2022-10-05T10:56:09.815Z,19.01
2022-10-05T10:57:09.732Z,19.23
2022-10-05T10:58:15.054Z,19.24
2022-10-05T10:59:09.579Z,19.21
2022-10-05T11:00:09.512Z,19.06
2022-10-05T11:01:09.429Z,18.98
2022-10-05T11:02:09.394Z,18.97
2022-10-05T11:03:09.329Z,18.97
2022-10-05T11:04:09.209Z,18.94
2022-10-05T11:05:09.131Z,18.90
2022-10-05T11:06:09.053Z,18.80
2022-10-05T11:07:08.979Z,18.83
2022-10-05T11:08:08.902Z,18.83
2022-10-05T11:09:08.834Z,18.87
2022-10-05T11:10:08.845Z,18.92
2022-10-05T11:11:08.705Z,18.92
2022-10-05T11:12:08.601Z,18.87
2022-10-05T11:13:08.521Z,18.99
2022-10-05T11:14:08.453Z,19.05
2022-10-05T11:15:08.383Z,19.27
2022-10-05T11:16:08.314Z,19.27
2022-10-05T11:17:08.225Z,19.36
2022-10-05T11:18:08.148Z,19.28
2022-10-05T11:19:08.069Z,19.33
2022-10-05T11:20:08.083Z,19.33
2022-10-05T11:21:07.920Z,19.28
2022-10-05T11:22:07.846Z,19.46
2022-10-05T11:23:07.767Z,19.48
2022-10-05T11:24:07.693Z,19.43
2022-10-05T11:25:07.618Z,19.51
2022-10-05T11:26:07.543Z,19.58
2022-10-05T11:27:07.466Z,19.58
2022-10-05T11:28:07.573Z,19.64
2022-10-05T11:29:07.316Z,19.61
2022-10-05T11:30:07.275Z,19.61
2022-10-05T11:31:07.211Z,19.61
2022-10-05T11:32:07.098Z,19.68
2022-10-05T11:33:07.016Z,19.75
2022-10-05T11:34:06.945Z,19.80
2022-10-05T11:35:06.863Z,19.78
2022-10-05T11:36:06.790Z,19.94
2022-10-05T11:37:06.724Z,20.01
2022-10-05T11:38:06.643Z,20.01
2022-10-05T11:39:06.570Z,20.10
2022-10-05T11:40:06.495Z,20.15
2022-10-05T11:41:06.416Z,20.19
2022-10-05T11:42:06.349Z,20.20
2022-10-05T11:43:06.274Z,20.20
2022-10-05T11:44:07.219Z,20.24
2022-10-05T11:45:06.121Z,20.20
2022-10-05T11:46:06.088Z,20.34
2022-10-05T11:47:05.963Z,20.38
2022-10-05T11:48:05.893Z,20.42
2022-10-05T11:49:05.822Z,20.38
2022-10-05T11:50:05.742Z,20.40
2022-10-05T11:51:05.674Z,20.47
2022-10-05T11:52:05.594Z,20.50
2022-10-05T11:53:05.524Z,20.50
2022-10-05T11:54:05.446Z,20.56
2022-10-05T11:55:10.943Z,20.50
2022-10-05T11:56:05.299Z,20.51
2022-10-05T11:57:05.218Z,20.47
2022-10-05T11:58:05.148Z,20.43
2022-10-05T11:59:05.072Z,20.47
2022-10-05T12:00:04.999Z,20.54
2022-10-05T12:01:04.919Z,20.49
2022-10-05T12:02:04.850Z,20.56
2022-10-05T12:03:04.914Z,20.68
2022-10-05T12:04:04.845Z,20.62
2022-10-05T12:05:04.626Z,20.64
2022-10-05T12:06:04.551Z,20.53
2022-10-05T12:07:04.475Z,20.51
2022-10-05T12:08:04.401Z,20.54
2022-10-05T12:09:04.326Z,20.56
2022-10-05T12:10:04.331Z,20.56
2022-10-05T12:11:04.179Z,20.64
2022-10-05T12:12:04.120Z,20.72
2022-10-05T12:13:04.029Z,20.76
2022-10-05T12:14:03.958Z,20.84
2022-10-05T12:15:03.877Z,20.89
2022-10-05T12:16:03.831Z,21.02
2022-10-05T12:17:03.732Z,21.05
2022-10-05T12:18:03.659Z,21.06
2022-10-05T12:19:03.582Z,21.14
2022-10-05T12:20:03.561Z,21.04
2022-10-05T12:21:03.433Z,21.06
2022-10-05T12:22:03.360Z,21.11
2022-10-05T12:23:03.292Z,21.16
2022-10-05T12:24:03.213Z,21.30
2022-10-05T12:25:03.135Z,21.26
2022-10-05T12:26:03.066Z,21.30
2022-10-05T12:27:02.994Z,21.16
2022-10-05T12:28:02.947Z,21.24
2022-10-05T12:29:02.848Z,21.19
2022-10-05T12:30:02.819Z,21.36
2022-10-05T12:31:02.743Z,21.38
2022-10-05T12:32:02.623Z,21.42
2022-10-05T12:33:02.596Z,21.44
2022-10-05T12:34:02.478Z,21.41
2022-10-05T12:35:02.401Z,21.53
2022-10-05T12:36:02.330Z,21.56
2022-10-05T12:37:04.781Z,21.57
2022-10-05T12:38:02.181Z,21.59
2022-10-05T12:39:02.099Z,21.70
2022-10-05T12:40:02.124Z,21.81
2022-10-05T12:41:01.954Z,21.82
2022-10-05T12:42:01.884Z,21.81
2022-10-05T12:43:01.803Z,21.84
2022-10-05T12:44:01.739Z,21.64
2022-10-05T12:45:01.662Z,21.54
2022-10-05T12:46:01.620Z,21.48
2022-10-05T12:47:01.506Z,21.48
2022-10-05T12:48:01.554Z,21.42
2022-10-05T12:49:01.359Z,21.48
2022-10-05T12:50:01.348Z,21.53
2022-10-05T12:51:01.223Z,21.44
2022-10-05T12:52:01.143Z,21.61
2022-10-05T12:53:01.064Z,21.66
2022-10-05T12:54:00.999Z,21.59
2022-10-05T12:55:00.920Z,21.81
2022-10-05T12:56:00.849Z,21.81
2022-10-05T12:57:00.773Z,21.97
2022-10-05T12:58:00.700Z,22.05
2022-10-05T12:59:00.630Z,22.05
2022-10-05T13:00:00.604Z,22.04
2022-10-05T13:01:00.668Z,22.05
2022-10-05T13:02:00.482Z,22.16
2022-10-05T13:03:00.326Z,22.13
2022-10-05T13:04:00.265Z,22.24
2022-10-05T13:05:00.182Z,22.17
2022-10-05T13:06:02.611Z,22.12